Time;durP1;ratioP1;P1;durP2;ratioP2;P2;SDS_P1;SDS_P2;PMS_P1;PMS_P2;Temp;Humidity;BMP_temperature;BMP_pressure;BME280_temperature;BME280_humidity;BME280_pressure;Samples;Min_cycle;Max_cycle;Signal;HPM_P1;HPM_P2
2021/07/17 00:04:29;;;;;;;23.27;9.23;;;19.00;99.90;;;;;;10347911;28;20123;-68
2021/07/17 00:09:30;;;;;;;16.40;8.18;;;19.10;99.90;;;;;;10348609;28;20115;-68
2021/07/17 00:14:32;;;;;;;32.78;9.75;;;19.00;99.90;;;;;;10349363;28;20034;-69
2021/07/17 00:19:34;;;;;;;17.48;7.95;;;19.00;99.90;;;;;;10332157;28;20134;-69
2021/07/17 00:24:36;;;;;;;20.65;7.90;;;19.00;99.90;;;;;;10350854;28;20084;-68
2021/07/17 00:29:37;;;;;;;24.05;9.07;;;19.00;99.90;;;;;;10348800;28;20140;-68
2021/07/17 00:34:39;;;;;;;20.77;9.98;;;19.00;99.90;;;;;;10349962;28;20120;-68
2021/07/17 00:39:41;;;;;;;17.30;8.93;;;19.00;99.90;;;;;;10353387;28;20049;-68
2021/07/17 00:44:42;;;;;;;15.38;8.55;;;18.90;99.90;;;;;;10355189;28;20104;-69
2021/07/17 00:49:44;;;;;;;19.17;9.15;;;18.90;99.90;;;;;;10355733;28;24907;-68
2021/07/17 00:54:49;;;;;;;16.80;8.70;;;18.80;99.90;;;;;;10354586;28;20058;-68
2021/07/17 00:59:52;;;;;;;19.10;7.97;;;18.80;99.90;;;;;;10356289;28;20100;-68
2021/07/17 01:04:54;;;;;;;15.40;9.00;;;18.80;99.90;;;;;;10353895;28;20131;-68
2021/07/17 01:09:56;;;;;;;22.55;8.93;;;18.80;99.90;;;;;;10354369;28;20459;-68
2021/07/17 01:14:58;;;;;;;18.88;8.70;;;18.80;99.90;;;;;;10356031;28;20108;-68
2021/07/17 01:20:00;;;;;;;17.20;8.95;;;18.80;99.90;;;;;;10355189;28;20050;-68
2021/07/17 01:25:08;;;;;;;15.10;7.57;;;18.70;99.90;;;;;;10353816;28;20050;-68
2021/07/17 01:30:19;;;;;;;15.40;8.70;;;18.70;99.90;;;;;;10353850;28;20073;-69
2021/07/17 01:35:21;;;;;;;13.32;7.20;;;18.80;99.90;;;;;;10336468;28;20058;-69
2021/07/17 01:40:23;;;;;;;14.02;8.50;;;18.90;99.90;;;;;;10353813;28;20585;-68
2021/07/17 01:45:31;;;;;;;14.98;8.55;;;18.90;99.90;;;;;;10354204;28;20062;-69
2021/07/17 01:50:33;;;;;;;20.20;7.70;;;18.80;99.90;;;;;;10352949;28;20073;-69
2021/07/17 01:55:35;;;;;;;13.40;7.30;;;18.90;99.90;;;;;;10353425;28;20041;-69
2021/07/17 02:00:38;;;;;;;15.88;7.88;;;18.90;99.90;;;;;;10352698;28;20038;-68
2021/07/17 02:05:40;;;;;;;14.95;7.82;;;18.80;99.90;;;;;;10351822;28;20065;-69
2021/07/17 02:10:42;;;;;;;15.00;7.93;;;18.80;99.90;;;;;;10353467;28;20104;-69
2021/07/17 02:15:51;;;;;;;15.45;7.60;;;18.80;99.90;;;;;;10348399;28;20128;-69
2021/07/17 02:20:53;;;;;;;15.30;8.23;;;18.60;99.90;;;;;;10352227;28;20056;-68
2021/07/17 02:25:56;;;;;;;10.93;6.53;;;18.60;99.90;;;;;;10351582;28;20507;-69
2021/07/17 02:30:57;;;;;;;13.45;6.25;;;18.60;99.90;;;;;;10349970;28;20073;-69
2021/07/17 02:35:59;;;;;;;9.85;6.75;;;18.60;99.90;;;;;;10351740;28;20173;-68
2021/07/17 02:41:02;;;;;;;11.43;5.88;;;18.60;99.90;;;;;;10351107;28;20138;-68
2021/07/17 02:46:03;;;;;;;16.33;6.88;;;18.60;99.90;;;;;;10353686;28;20050;-68
2021/07/17 02:51:05;;;;;;;17.35;7.22;;;18.60;99.90;;;;;;10333264;28;20557;-68
2021/07/17 02:56:07;;;;;;;14.45;6.47;;;18.60;99.90;;;;;;10350462;28;20061;-68
2021/07/17 03:01:08;;;;;;;13.95;6.55;;;18.60;99.90;;;;;;10349175;28;20094;-68
2021/07/17 03:06:12;;;;;;;10.90;6.72;;;18.60;99.90;;;;;;10350633;28;20038;-68
2021/07/17 03:11:14;;;;;;;14.32;6.35;;;18.50;99.90;;;;;;10349707;28;20062;-68
2021/07/17 03:16:16;;;;;;;14.50;5.88;;;18.50;99.90;;;;;;10332005;28;20046;-68
2021/07/17 03:21:17;;;;;;;14.10;5.63;;;18.50;99.90;;;;;;10347586;28;20049;-68
2021/07/17 03:26:19;;;;;;;11.18;5.97;;;18.50;99.90;;;;;;10348476;28;20042;-69
2021/07/17 03:31:28;;;;;;;12.35;5.25;;;18.60;99.90;;;;;;10346927;28;20116;-69
2021/07/17 03:36:31;;;;;;;14.85;5.65;;;18.70;99.90;;;;;;10315701;28;20140;-62
2021/07/17 03:41:34;;;;;;;9.43;5.38;;;18.70;99.90;;;;;;10321822;28;20050;-63
2021/07/17 03:46:36;;;;;;;11.73;5.95;;;18.80;99.90;;;;;;10323354;28;20050;-62
2021/07/17 03:51:38;;;;;;;10.50;5.45;;;18.80;99.90;;;;;;10316227;28;20129;-61
2021/07/17 03:56:40;;;;;;;9.43;5.50;;;18.80;99.90;;;;;;10348727;28;20112;-62
2021/07/17 04:01:42;;;;;;;7.82;5.10;;;18.80;99.90;;;;;;10349004;28;20492;-62
2021/07/17 04:06:44;;;;;;;10.18;5.43;;;18.80;99.90;;;;;;10347922;28;20581;-62
2021/07/17 04:11:46;;;;;;;8.80;5.47;;;18.70;99.90;;;;;;10347358;28;20050;-61
2021/07/17 04:16:48;;;;;;;13.75;6.93;;;18.70;99.90;;;;;;10338345;28;20123;-62
2021/07/17 04:21:49;;;;;;;11.63;6.13;;;18.70;99.90;;;;;;10356490;28;20050;-61
2021/07/17 04:26:51;;;;;;;11.57;6.00;;;18.60;99.90;;;;;;10356288;28;20080;-61
2021/07/17 04:31:53;;;;;;;8.60;5.82;;;18.70;99.90;;;;;;10356729;28;20054;-62
2021/07/17 04:36:59;;;;;;;7.22;5.07;;;18.60;99.90;;;;;;10354406;28;20042;-62
2021/07/17 04:42:01;;;;;;;17.88;5.80;;;18.70;99.90;;;;;;10353944;28;20065;-61
2021/07/17 04:47:04;;;;;;;14.38;6.32;;;18.70;99.90;;;;;;10354887;28;20057;-61
2021/07/17 04:52:06;;;;;;;8.75;5.38;;;18.70;99.90;;;;;;10356031;28;20447;-61
2021/07/17 04:57:07;;;;;;;10.63;5.63;;;18.70;99.90;;;;;;10356430;28;20080;-61
2021/07/17 05:02:09;;;;;;;9.15;5.38;;;18.80;99.90;;;;;;10353219;28;20065;-61
2021/07/17 05:07:11;;;;;;;5.72;4.18;;;18.70;99.90;;;;;;10354845;28;20158;-62
2021/07/17 05:12:13;;;;;;;9.27;4.95;;;18.80;99.90;;;;;;10355905;28;20049;-62
2021/07/17 05:17:14;;;;;;;10.77;4.85;;;18.70;99.90;;;;;;10352709;28;20081;-62
2021/07/17 05:22:16;;;;;;;9.20;4.53;;;18.70;99.90;;;;;;10355489;28;20124;-62
2021/07/17 05:27:18;;;;;;;9.60;4.60;;;18.70;99.90;;;;;;10351151;28;20077;-62
2021/07/17 05:32:19;;;;;;;10.57;4.28;;;18.70;99.90;;;;;;10354078;28;20081;-62
2021/07/17 05:37:22;;;;;;;9.45;4.18;;;18.90;99.90;;;;;;10354173;28;20056;-62
2021/07/17 05:42:24;;;;;;;10.48;4.15;;;18.90;99.90;;;;;;10353084;28;20828;-62
2021/07/17 05:47:26;;;;;;;8.60;4.50;;;19.00;99.90;;;;;;10352759;28;20080;-62
2021/07/17 05:52:28;;;;;;;6.97;4.30;;;18.80;99.90;;;;;;10331059;28;20101;-61
2021/07/17 05:57:32;;;;;;;6.95;4.15;;;18.80;99.90;;;;;;10354706;28;20057;-62
2021/07/17 06:02:33;;;;;;;5.38;4.03;;;18.80;99.90;;;;;;10352327;28;20057;-62
2021/07/17 06:07:35;;;;;;;5.63;3.67;;;19.00;99.90;;;;;;10353577;28;20052;-62
2021/07/17 06:12:37;;;;;;;7.35;3.90;;;19.00;99.90;;;;;;10350899;28;20046;-62
2021/07/17 06:17:39;;;;;;;6.20;3.22;;;19.20;99.90;;;;;;10352884;28;20069;-62
2021/07/17 06:22:40;;;;;;;6.60;3.53;;;19.10;99.90;;;;;;10350551;28;20049;-62
2021/07/17 06:27:42;;;;;;;8.20;3.20;;;19.30;99.90;;;;;;10350573;28;20046;-62
2021/07/17 06:32:44;;;;;;;6.15;3.33;;;19.30;99.90;;;;;;10353123;28;20093;-62
2021/07/17 06:37:46;;;;;;;8.35;3.22;;;19.50;99.90;;;;;;10354602;28;20088;-62
2021/07/17 06:42:50;;;;;;;6.05;3.33;;;19.60;99.90;;;;;;10372565;28;20058;-61
2021/07/17 06:47:52;;;;;;;7.05;3.55;;;19.80;99.90;;;;;;10349957;28;20505;-62
2021/07/17 06:52:54;;;;;;;5.22;3.47;;;19.50;99.90;;;;;;10362384;28;20046;-61
2021/07/17 06:57:56;;;;;;;5.63;3.70;;;19.70;99.90;;;;;;10362120;28;20053;-61
2021/07/17 07:02:57;;;;;;;5.10;2.65;;;19.70;99.90;;;;;;10355178;28;20068;-62
2021/07/17 07:07:59;;;;;;;9.10;3.40;;;19.80;99.90;;;;;;10355746;28;20065;-62
2021/07/17 07:13:13;;;;;;;3.92;2.67;;;19.90;99.90;;;;;;10346248;28;20045;-62
2021/07/17 07:18:15;;;;;;;4.50;3.22;;;20.00;99.90;;;;;;10351022;28;20619;-61
2021/07/17 07:23:16;;;;;;;6.45;3.60;;;20.30;99.90;;;;;;10349544;28;20049;-62
2021/07/17 07:28:18;;;;;;;6.32;3.65;;;20.10;99.90;;;;;;10349773;28;20456;-62
2021/07/17 07:33:20;;;;;;;7.18;3.63;;;20.50;99.90;;;;;;10346193;28;20096;-62
2021/07/17 07:38:21;;;;;;;6.43;4.13;;;20.30;99.90;;;;;;10345067;28;20484;-62
2021/07/17 07:43:23;;;;;;;7.57;3.13;;;20.50;99.90;;;;;;10346490;28;20058;-62
2021/07/17 07:48:24;;;;;;;6.55;3.75;;;20.60;99.90;;;;;;10341374;28;20125;-59
2021/07/17 07:53:26;;;;;;;7.25;4.20;;;20.60;99.90;;;;;;10341199;28;20061;-58
2021/07/17 07:58:31;;;;;;;6.07;3.28;;;20.60;99.90;;;;;;10345071;28;20561;-59
2021/07/17 08:03:33;;;;;;;6.80;4.10;;;20.80;99.90;;;;;;10340648;28;20089;-58
2021/07/17 08:08:35;;;;;;;5.70;3.47;;;20.90;99.90;;;;;;10352424;28;20042;-58
2021/07/17 08:13:37;;;;;;;6.07;3.85;;;21.00;99.90;;;;;;10349784;28;20046;-59
2021/07/17 08:18:39;;;;;;;4.70;3.40;;;21.00;99.90;;;;;;10356782;28;20049;-58
2021/07/17 08:23:41;;;;;;;10.77;3.05;;;21.00;99.90;;;;;;10350617;28;20073;-59
2021/07/17 08:28:43;;;;;;;7.60;4.72;;;21.10;99.90;;;;;;10349687;28;20057;-59
2021/07/17 08:33:45;;;;;;;6.32;3.70;;;21.20;99.90;;;;;;10368343;28;20057;-59
2021/07/17 08:38:49;;;;;;;8.77;3.58;;;21.50;99.90;;;;;;10351341;28;20050;-58
2021/07/17 08:43:55;;;;;;;8.30;4.13;;;21.90;99.90;;;;;;10347286;28;20081;-59
2021/07/17 08:48:57;;;;;;;5.80;4.18;;;22.00;99.90;;;;;;10345407;28;20046;-58
2021/07/17 08:54:00;;;;;;;7.10;3.30;;;22.20;99.90;;;;;;10345090;28;20378;-58
2021/07/17 08:59:02;;;;;;;10.30;3.90;;;22.30;99.90;;;;;;10351425;28;20392;-59
2021/07/17 09:04:04;;;;;;;6.55;4.00;;;22.00;99.90;;;;;;10350922;28;20072;-58
2021/07/17 09:09:07;;;;;;;7.20;4.40;;;22.00;99.90;;;;;;10366250;28;20472;-58
2021/07/17 09:14:28;;;;;;;9.07;4.95;;;21.90;99.90;;;;;;10359945;28;20053;-59
2021/07/17 09:19:31;;;;;;;7.93;4.18;;;22.10;99.90;;;;;;10362384;28;20053;-58
2021/07/17 09:24:33;;;;;;;5.20;4.07;;;22.50;99.90;;;;;;10330695;28;20050;-58
2021/07/17 09:29:37;;;;;;;8.38;4.38;;;22.70;99.90;;;;;;10358079;28;20062;-58
2021/07/17 09:34:39;;;;;;;4.75;3.80;;;23.00;99.90;;;;;;10354184;28;20783;-61
2021/07/17 09:39:47;;;;;;;5.55;4.10;;;23.30;99.90;;;;;;10336259;28;20087;-63
2021/07/17 09:44:51;;;;;;;8.52;4.45;;;23.30;99.90;;;;;;10353137;28;20049;-63
2021/07/17 09:50:12;;;;;;;7.00;4.10;;;23.00;99.90;;;;;;10346803;28;20057;-65
2021/07/17 09:55:16;;;;;;;6.72;4.40;;;23.40;99.90;;;;;;10298189;28;20042;-65
2021/07/17 10:00:23;;;;;;;6.20;4.18;;;23.40;99.90;;;;;;10350294;28;20080;-62
2021/07/17 10:05:39;;;;;;;8.35;4.20;;;23.50;99.90;;;;;;10351689;28;20142;-62
2021/07/17 10:10:44;;;;;;;7.15;4.13;;;24.10;99.90;;;;;;10296597;28;20060;-65
2021/07/17 10:15:46;;;;;;;10.20;3.77;;;24.60;99.90;;;;;;10350089;28;20103;-59
2021/07/17 10:20:49;;;;;;;7.03;3.38;;;24.60;99.90;;;;;;10348213;28;20062;-60
2021/07/17 10:25:51;;;;;;;7.10;3.20;;;24.90;99.90;;;;;;10353486;28;20419;-59
2021/07/17 10:30:54;;;;;;;7.22;3.97;;;25.10;99.90;;;;;;10353946;28;20053;-58
2021/07/17 10:36:00;;;;;;;6.07;4.05;;;25.40;99.90;;;;;;10330615;28;20046;-59
2021/07/17 10:41:03;;;;;;;6.82;4.00;;;25.40;99.90;;;;;;10351143;28;20088;-59
2021/07/17 10:46:24;;;;;;;8.45;4.15;;;25.10;99.90;;;;;;10363621;28;20038;-58
2021/07/17 10:51:30;;;;;;;7.18;3.72;;;25.40;99.90;;;;;;10349968;28;20046;-59
2021/07/17 10:56:43;;;;;;;6.63;4.00;;;25.90;99.90;;;;;;10351623;28;20492;-59
2021/07/17 11:01:57;;;;;;;5.00;3.50;;;26.30;99.90;;;;;;10354756;28;20112;-62
2021/07/17 11:07:16;;;;;;;5.57;3.47;;;26.70;99.90;;;;;;10347565;28;20491;-57
2021/07/17 11:12:19;;;;;;;7.13;3.80;;;26.80;99.30;;;;;;10347744;28;20128;-56
2021/07/17 11:17:40;;;;;;;3.95;3.42;;;26.90;98.50;;;;;;10345176;28;20558;-56
2021/07/17 11:22:43;;;;;;;5.35;3.50;;;27.00;97.90;;;;;;10300327;28;20082;-57
2021/07/17 11:27:45;;;;;;;3.83;3.30;;;27.00;97.50;;;;;;10349568;28;20111;-56
2021/07/17 11:33:05;;;;;;;5.53;3.00;;;27.00;97.70;;;;;;10345794;28;20069;-55
2021/07/17 11:38:09;;;;;;;4.65;3.55;;;26.70;96.60;;;;;;10347234;28;20046;-57
2021/07/17 11:43:11;;;;;;;4.05;3.40;;;26.70;97.10;;;;;;10352649;28;20054;-60
2021/07/17 11:48:14;;;;;;;5.03;3.67;;;26.90;96.80;;;;;;10351059;28;20111;-58
2021/07/17 11:53:18;;;;;;;5.82;2.92;;;27.10;96.50;;;;;;10352771;28;20072;-57
2021/07/17 11:58:20;;;;;;;4.15;3.35;;;27.30;95.80;;;;;;10352139;28;20085;-55
2021/07/17 12:03:22;;;;;;;4.68;3.00;;;27.30;94.80;;;;;;10346026;28;20054;-57
2021/07/17 12:08:24;;;;;;;5.63;2.88;;;27.10;94.40;;;;;;10304623;28;20159;-57
2021/07/17 12:13:26;;;;;;;4.90;2.78;;;27.00;94.60;;;;;;10330083;28;20377;-62
2021/07/17 12:18:28;;;;;;;6.45;3.42;;;26.90;95.90;;;;;;10354396;28;20100;-61
2021/07/17 12:23:30;;;;;;;6.85;2.97;;;26.80;95.80;;;;;;10352610;28;20054;-63
2021/07/17 12:28:36;;;;;;;4.68;3.47;;;26.90;95.70;;;;;;10347837;28;20049;-64
2021/07/17 12:33:40;;;;;;;5.22;3.35;;;26.80;95.10;;;;;;10349549;28;20041;-64
2021/07/17 12:38:51;;;;;;;4.60;3.25;;;26.80;95.60;;;;;;10354627;28;20148;-63
2021/07/17 12:43:55;;;;;;;7.97;3.58;;;26.90;95.20;;;;;;10355432;28;20131;-64
2021/07/17 12:49:08;;;;;;;7.25;3.85;;;26.80;95.60;;;;;;10328829;28;20048;-64
2021/07/17 12:54:24;;;;;;;5.38;3.78;;;26.60;95.40;;;;;;10301761;28;20096;-65
2021/07/17 12:59:38;;;;;;;10.32;4.57;;;26.60;96.20;;;;;;10354603;28;20053;-65
2021/07/17 13:04:58;;;;;;;4.88;4.25;;;26.70;96.30;;;;;;10284667;28;20827;-64
2021/07/17 13:10:00;;;;;;;5.68;4.57;;;27.00;95.50;;;;;;10353985;28;20508;-64
2021/07/17 13:15:02;;;;;;;9.25;4.45;;;27.00;94.20;;;;;;10355400;28;20065;-64
2021/07/17 13:20:10;;;;;;;6.90;3.72;;;27.00;94.50;;;;;;10354495;28;20450;-63
2021/07/17 13:25:19;;;;;;;4.90;4.30;;;27.10;93.70;;;;;;10352237;28;20046;-64
2021/07/17 13:30:31;;;;;;;6.60;4.47;;;27.00;93.50;;;;;;10355394;28;20046;-65
2021/07/17 13:35:34;;;;;;;4.78;4.20;;;27.00;93.50;;;;;;10353503;28;20056;-65
2021/07/17 13:40:38;;;;;;;5.22;4.32;;;27.20;93.70;;;;;;10350742;28;20731;-64
2021/07/17 13:45:41;;;;;;;7.57;4.10;;;27.20;94.20;;;;;;10349151;28;20054;-65
2021/07/17 13:50:47;;;;;;;4.65;4.10;;;27.20;94.10;;;;;;10351683;28;20143;-64
2021/07/17 13:55:51;;;;;;;9.27;3.95;;;27.20;94.40;;;;;;10352486;28;20448;-64
2021/07/17 14:00:57;;;;;;;5.53;4.57;;;27.40;94.80;;;;;;10352455;28;20053;-65
2021/07/17 14:06:15;;;;;;;7.65;4.65;;;27.60;94.00;;;;;;10351631;28;20050;-65
2021/07/17 14:11:18;;;;;;;9.73;4.70;;;27.60;93.70;;;;;;10352765;28;20056;-65
2021/07/17 14:16:20;;;;;;;6.18;4.60;;;27.70;93.40;;;;;;10352853;28;20101;-65
2021/07/17 14:21:22;;;;;;;6.30;4.35;;;28.10;93.10;;;;;;10351257;28;20465;-64
2021/07/17 14:26:23;;;;;;;9.52;4.47;;;28.60;92.40;;;;;;10352059;28;20104;-64
2021/07/17 14:31:25;;;;;;;8.93;4.32;;;28.60;92.00;;;;;;10352367;28;20057;-65
2021/07/17 14:36:28;;;;;;;7.88;4.45;;;28.30;92.00;;;;;;10352462;28;20053;-64
2021/07/17 14:41:29;;;;;;;6.43;4.70;;;28.00;92.00;;;;;;10350452;28;20053;-65
2021/07/17 14:46:31;;;;;;;7.40;4.40;;;27.90;92.70;;;;;;10352167;28;20080;-60
2021/07/17 14:51:34;;;;;;;6.90;4.43;;;28.10;92.80;;;;;;10350739;28;20050;-59
2021/07/17 14:56:36;;;;;;;8.20;4.28;;;28.60;90.90;;;;;;10350236;28;20123;-60
2021/07/17 15:01:38;;;;;;;6.90;4.88;;;28.60;91.10;;;;;;10350501;28;20049;-59
2021/07/17 15:06:40;;;;;;;7.30;4.32;;;28.70;90.30;;;;;;10350586;28;20792;-60
2021/07/17 15:11:42;;;;;;;6.40;5.03;;;29.10;90.50;;;;;;10350936;28;20049;-60
2021/07/17 15:16:43;;;;;;;8.65;5.28;;;29.00;90.00;;;;;;10349966;28;20046;-59
2021/07/17 15:21:45;;;;;;;8.23;4.47;;;28.90;90.50;;;;;;10351163;28;20919;-59
2021/07/17 15:26:47;;;;;;;9.15;4.65;;;28.80;89.90;;;;;;10349745;28;20050;-60
2021/07/17 15:31:51;;;;;;;3.97;3.58;;;28.70;89.70;;;;;;10351210;28;20108;-62
2021/07/17 15:36:54;;;;;;;5.32;3.63;;;28.60;87.10;;;;;;10347256;28;20053;-62
2021/07/17 15:41:55;;;;;;;4.38;3.05;;;28.30;86.60;;;;;;10348738;28;20088;-62
2021/07/17 15:46:58;;;;;;;5.20;2.70;;;28.20;83.50;;;;;;10347363;28;20518;-62
2021/07/17 15:52:00;;;;;;;5.55;2.50;;;28.40;84.10;;;;;;10327608;28;20068;-65
2021/07/17 15:57:07;;;;;;;6.35;2.78;;;28.70;82.30;;;;;;10345376;28;20049;-62
2021/07/17 16:02:09;;;;;;;3.65;2.58;;;29.20;80.10;;;;;;10346702;28;20115;-66
2021/07/17 16:07:12;;;;;;;3.33;2.58;;;29.60;78.20;;;;;;10347893;28;20485;-60
2021/07/17 16:12:14;;;;;;;6.18;3.10;;;30.10;76.80;;;;;;10349320;28;20169;-60
2021/07/17 16:17:16;;;;;;;8.55;5.18;;;30.50;75.70;;;;;;10330089;28;20049;-63
2021/07/17 16:22:18;;;;;;;6.28;4.05;;;30.80;75.00;;;;;;10349231;28;20055;-66
2021/07/17 16:27:20;;;;;;;2.83;2.63;;;30.80;75.50;;;;;;10348824;28;20058;-64
2021/07/17 16:32:21;;;;;;;4.50;3.63;;;30.90;75.90;;;;;;10329300;28;20085;-60
2021/07/17 16:37:23;;;;;;;5.85;3.10;;;31.30;74.50;;;;;;10345689;28;20445;-59
2021/07/17 16:42:25;;;;;;;6.05;3.85;;;31.30;75.50;;;;;;10347582;28;20100;-62
2021/07/17 16:47:27;;;;;;;5.95;3.78;;;31.00;75.90;;;;;;10350116;28;20069;-60
2021/07/17 16:52:28;;;;;;;5.65;3.90;;;30.80;76.50;;;;;;10328954;28;20508;-62
2021/07/17 16:57:30;;;;;;;7.28;3.58;;;30.50;76.80;;;;;;10347488;28;20111;-61
2021/07/17 17:02:32;;;;;;;4.80;3.15;;;30.40;79.00;;;;;;10328212;28;20049;-61
2021/07/17 17:07:34;;;;;;;6.45;3.80;;;30.30;77.90;;;;;;10348334;28;20121;-61
2021/07/17 17:12:36;;;;;;;5.10;3.25;;;30.40;78.40;;;;;;10348265;28;20112;-64
2021/07/17 17:17:39;;;;;;;5.15;3.88;;;30.40;78.70;;;;;;10348219;28;20057;-65
2021/07/17 17:22:42;;;;;;;4.82;3.47;;;30.10;79.30;;;;;;10353479;28;20292;-64
2021/07/17 17:27:44;;;;;;;7.60;3.47;;;29.70;79.60;;;;;;10355647;28;20034;-62
2021/07/17 17:32:48;;;;;;;5.63;3.95;;;29.30;79.20;;;;;;10353720;28;20412;-61
2021/07/17 17:37:50;;;;;;;9.48;4.88;;;28.90;81.50;;;;;;10353757;28;20069;-64
2021/07/17 17:42:51;;;;;;;6.90;3.75;;;28.60;82.60;;;;;;10334319;28;20123;-62
2021/07/17 17:47:53;;;;;;;9.88;3.83;;;28.60;83.80;;;;;;10354720;28;20042;-64
2021/07/17 17:52:55;;;;;;;7.28;4.07;;;28.40;83.90;;;;;;10355966;28;20038;-61
2021/07/17 17:58:00;;;;;;;6.70;3.88;;;28.70;83.70;;;;;;10354629;28;20061;-63
2021/07/17 18:03:02;;;;;;;4.10;2.50;;;28.20;82.70;;;;;;10351948;28;20050;-60
2021/07/17 18:08:04;;;;;;;4.15;2.67;;;28.10;80.30;;;;;;10356980;28;20052;-61
2021/07/17 18:13:05;;;;;;;7.30;2.80;;;28.00;80.70;;;;;;10355375;28;20054;-63
2021/07/17 18:18:07;;;;;;;5.38;2.40;;;27.40;80.80;;;;;;10354789;28;20104;-66
2021/07/17 18:23:09;;;;;;;7.10;3.25;;;26.90;82.50;;;;;;10356011;28;20050;-60
2021/07/17 18:28:11;;;;;;;5.45;2.63;;;26.60;85.00;;;;;;10352262;28;20046;-65
2021/07/17 18:33:12;;;;;;;7.07;2.40;;;26.30;85.10;;;;;;10351202;28;20041;-60
2021/07/17 18:38:14;;;;;;;5.43;2.13;;;26.10;86.50;;;;;;10352749;28;20432;-59
2021/07/17 18:43:16;;;;;;;8.00;2.58;;;25.80;87.10;;;;;;10350164;28;20092;-58
2021/07/17 18:48:18;;;;;;;6.65;3.75;;;25.70;87.80;;;;;;10348891;28;20120;-63
2021/07/17 18:53:20;;;;;;;8.00;2.58;;;25.50;88.60;;;;;;10346525;28;20058;-59
2021/07/17 18:58:22;;;;;;;6.40;2.70;;;25.30;90.00;;;;;;10349221;28;20061;-58
2021/07/17 19:03:23;;;;;;;6.05;2.72;;;25.00;90.50;;;;;;10350178;28;20132;-58
2021/07/17 19:08:26;;;;;;;9.00;2.10;;;24.70;91.30;;;;;;10349370;28;20404;-56
2021/07/17 19:13:28;;;;;;;6.65;2.42;;;24.50;92.10;;;;;;10351703;28;20042;-56
2021/07/17 19:18:29;;;;;;;5.72;2.13;;;24.20;92.80;;;;;;10350414;28;20123;-57
2021/07/17 19:23:31;;;;;;;5.28;2.95;;;24.20;93.50;;;;;;10349243;28;20116;-57
2021/07/17 19:28:33;;;;;;;6.38;3.80;;;23.90;94.50;;;;;;10350832;28;20050;-56
2021/07/17 19:33:34;;;;;;;9.35;3.50;;;23.70;95.50;;;;;;10348320;28;20053;-56
2021/07/17 19:38:36;;;;;;;7.30;3.47;;;23.60;95.80;;;;;;10311845;28;20045;-56
2021/07/17 19:43:38;;;;;;;5.72;2.80;;;23.30;97.00;;;;;;10328427;28;20057;-57
2021/07/17 19:48:39;;;;;;;6.70;2.47;;;23.10;97.50;;;;;;10348355;28;20171;-58
2021/07/17 19:53:41;;;;;;;5.72;2.33;;;22.90;98.10;;;;;;10347632;28;20054;-56
2021/07/17 19:58:43;;;;;;;6.20;2.75;;;22.70;99.10;;;;;;10319091;28;20049;-57
2021/07/17 20:03:45;;;;;;;9.98;2.47;;;22.60;99.90;;;;;;10329316;28;20511;-58
2021/07/17 20:08:46;;;;;;;4.22;2.13;;;22.50;99.90;;;;;;10349536;28;20104;-58
2021/07/17 20:13:48;;;;;;;3.33;1.92;;;22.40;99.90;;;;;;10349224;28;20089;-56
2021/07/17 20:18:50;;;;;;;5.32;1.80;;;22.20;99.90;;;;;;10347815;28;20081;-58
2021/07/17 20:23:52;;;;;;;7.90;2.70;;;22.00;99.90;;;;;;10347368;28;20064;-57
2021/07/17 20:28:54;;;;;;;6.53;2.08;;;21.80;99.90;;;;;;10349049;28;20053;-57
2021/07/17 20:33:56;;;;;;;11.57;1.92;;;21.70;99.90;;;;;;10349545;28;20049;-57
2021/07/17 20:38:58;;;;;;;3.95;1.20;;;21.50;99.90;;;;;;10347243;28;20115;-57
2021/07/17 20:43:59;;;;;;;6.55;1.48;;;21.40;99.90;;;;;;10344956;28;20053;-58
2021/07/17 20:49:01;;;;;;;3.88;1.15;;;21.20;99.90;;;;;;10348002;28;20072;-57
2021/07/17 20:54:03;;;;;;;4.43;1.40;;;21.00;99.90;;;;;;10348752;28;20392;-56
2021/07/17 21:05:22;;;;;;;9.00;1.67;;;20.80;99.90;;;;;;10292590;28;20053;-58
2021/07/17 21:10:28;;;;;;;5.50;1.73;;;20.60;99.90;;;;;;10354735;28;20091;-56
2021/07/17 21:15:29;;;;;;;4.85;1.20;;;20.50;99.90;;;;;;10351945;28;20049;-57
2021/07/17 21:20:31;;;;;;;6.15;1.50;;;20.30;99.90;;;;;;10353948;28;20038;-58
2021/07/17 21:25:35;;;;;;;6.15;1.73;;;20.10;99.90;;;;;;10349994;28;20104;-57
2021/07/17 21:30:37;;;;;;;10.48;2.67;;;20.00;99.90;;;;;;10353474;28;20125;-57
2021/07/17 21:35:39;;;;;;;4.57;2.13;;;19.80;99.90;;;;;;10354112;28;20111;-57
2021/07/17 21:40:40;;;;;;;4.35;1.40;;;19.80;99.90;;;;;;10332342;28;20137;-57
2021/07/17 21:45:42;;;;;;;3.90;2.40;;;19.60;99.90;;;;;;10355280;28;20053;-60
2021/07/17 21:50:44;;;;;;;4.18;1.63;;;19.50;99.90;;;;;;10354327;28;20412;-59
2021/07/17 21:55:53;;;;;;;5.72;2.08;;;19.30;99.90;;;;;;10353194;28;20052;-59
2021/07/17 22:00:56;;;;;;;3.30;0.85;;;19.30;99.90;;;;;;10352274;28;20083;-59
2021/07/17 22:05:59;;;;;;;2.20;0.70;;;19.40;99.90;;;;;;10351604;28;20104;-59
2021/07/17 22:11:04;;;;;;;2.85;0.75;;;19.30;99.90;;;;;;10349421;28;20197;-58
2021/07/17 22:16:08;;;;;;;2.33;0.50;;;19.30;99.90;;;;;;10352510;28;20392;-59
2021/07/17 22:21:10;;;;;;;3.70;0.60;;;19.30;99.90;;;;;;10353088;28;20491;-59
2021/07/17 22:26:12;;;;;;;4.55;0.63;;;19.30;99.90;;;;;;10351774;28;20081;-58
2021/07/17 22:31:14;;;;;;;4.93;0.52;;;19.30;99.90;;;;;;10350817;28;20500;-58
2021/07/17 22:36:16;;;;;;;3.97;0.40;;;19.40;99.90;;;;;;10353345;28;20053;-59
2021/07/17 22:41:18;;;;;;;2.65;0.73;;;19.50;99.90;;;;;;10350022;28;20100;-59
2021/07/17 22:46:20;;;;;;;5.43;0.52;;;19.50;99.90;;;;;;10350343;28;20115;-59
2021/07/17 22:51:22;;;;;;;1.63;0.57;;;19.50;99.90;;;;;;10351287;28;20049;-59
2021/07/17 22:56:24;;;;;;;2.92;0.40;;;19.40;99.90;;;;;;10352609;28;20053;-59
2021/07/17 23:01:26;;;;;;;2.13;0.43;;;19.30;99.90;;;;;;10351157;28;20081;-58
2021/07/17 23:06:28;;;;;;;2.33;0.73;;;19.30;99.90;;;;;;10351045;28;20038;-59
2021/07/17 23:11:30;;;;;;;2.63;0.35;;;19.30;99.90;;;;;;10350441;28;20053;-59
2021/07/17 23:16:31;;;;;;;2.88;0.30;;;19.30;99.90;;;;;;10351174;28;20707;-59
2021/07/17 23:21:33;;;;;;;2.10;0.30;;;19.30;99.90;;;;;;10349232;28;20100;-58
2021/07/17 23:26:35;;;;;;;4.57;0.40;;;19.20;99.90;;;;;;10349611;28;20066;-59
2021/07/17 23:31:36;;;;;;;2.65;0.35;;;19.10;99.90;;;;;;10347214;28;20069;-59
2021/07/17 23:36:38;;;;;;;1.10;0.40;;;19.00;99.90;;;;;;10347702;28;20077;-59
2021/07/17 23:41:40;;;;;;;6.75;0.47;;;18.90;99.90;;;;;;10344707;28;20118;-59
2021/07/17 23:46:41;;;;;;;3.47;0.47;;;18.80;99.90;;;;;;10349450;28;20046;-59
2021/07/17 23:51:44;;;;;;;4.43;0.52;;;18.60;99.90;;;;;;10349444;28;20068;-58
2021/07/17 23:56:45;;;;;;;5.03;0.60;;;18.50;99.90;;;;;;10347607;28;20104;-59
